sensor_id;sensor_type;location;lat;lon;timestamp;pressure;altitude;pressure_sealevel;temperature;humidity
64908;BME280;64365;-1.756;110.040;2023-02-19T00:02:06;101693.63;;;11.42;95.82
64908;BME280;64365;-1.756;110.040;2023-02-19T00:04:32;101695.78;;;11.37;95.57
64908;BME280;64365;-1.756;110.040;2023-02-19T00:06:59;101706.78;;;11.35;95.86
64908;BME280;64365;-1.756;110.040;2023-02-19T00:09:27;101702.50;;;11.31;96.36
64908;BME280;64365;-1.756;110.040;2023-02-19T00:11:54;101699.06;;;11.30;95.87
64908;BME280;64365;-1.756;110.040;2023-02-19T00:14:20;101693.75;;;11.30;96.45
64908;BME280;64365;-1.756;110.040;2023-02-19T00:16:47;101708.56;;;11.31;96.58
64908;BME280;64365;-1.756;110.040;2023-02-19T00:19:16;101712.03;;;11.32;96.82
64908;BME280;64365;-1.756;110.040;2023-02-19T00:21:42;101702.41;;;11.27;96.85
64908;BME280;64365;-1.756;110.040;2023-02-19T00:24:10;101712.72;;;11.28;96.33
64908;BME280;64365;-1.756;110.040;2023-02-19T00:26:39;101714.25;;;11.29;96.60
64908;BME280;64365;-1.756;110.040;2023-02-19T00:29:06;101710.81;;;11.29;96.45
64908;BME280;64365;-1.756;110.040;2023-02-19T00:31:33;101696.31;;;11.26;96.60
64908;BME280;64365;-1.756;110.040;2023-02-19T00:34:02;101706.53;;;11.24;96.95
64908;BME280;64365;-1.756;110.040;2023-02-19T00:36:29;101714.59;;;11.28;96.97
64908;BME280;64365;-1.756;110.040;2023-02-19T00:38:57;101709.63;;;11.26;97.01
64908;BME280;64365;-1.756;110.040;2023-02-19T00:41:24;101713.47;;;11.29;96.90
64908;BME280;64365;-1.756;110.040;2023-02-19T00:43:53;101707.31;;;11.25;96.57
64908;BME280;64365;-1.756;110.040;2023-02-19T00:46:22;101717.34;;;11.32;96.80
64908;BME280;64365;-1.756;110.040;2023-02-19T00:48:49;101712.78;;;11.32;96.67
64908;BME280;64365;-1.756;110.040;2023-02-19T00:51:17;101710.56;;;11.34;97.23
64908;BME280;64365;-1.756;110.040;2023-02-19T00:53:44;101712.19;;;11.39;96.14
64908;BME280;64365;-1.756;110.040;2023-02-19T00:56:12;101716.22;;;11.33;96.44
64908;BME280;64365;-1.756;110.040;2023-02-19T00:58:38;101725.75;;;11.34;96.51
64908;BME280;64365;-1.756;110.040;2023-02-19T01:01:07;101718.81;;;11.29;96.29
64908;BME280;64365;-1.756;110.040;2023-02-19T01:03:35;101731.06;;;11.34;96.42
64908;BME280;64365;-1.756;110.040;2023-02-19T01:06:02;101734.16;;;11.36;96.69
64908;BME280;64365;-1.756;110.040;2023-02-19T01:08:30;101736.47;;;11.37;96.36
64908;BME280;64365;-1.756;110.040;2023-02-19T01:10:57;101729.69;;;11.40;95.80
64908;BME280;64365;-1.756;110.040;2023-02-19T01:13:24;101722.06;;;11.38;95.90
64908;BME280;64365;-1.756;110.040;2023-02-19T01:15:50;101732.63;;;11.35;96.16
64908;BME280;64365;-1.756;110.040;2023-02-19T01:18:18;101728.84;;;11.36;96.30
64908;BME280;64365;-1.756;110.040;2023-02-19T01:20:45;101729.97;;;11.35;96.24
64908;BME280;64365;-1.756;110.040;2023-02-19T01:23:12;101733.06;;;11.37;95.79
64908;BME280;64365;-1.756;110.040;2023-02-19T01:25:40;101732.63;;;11.35;96.18
64908;BME280;64365;-1.756;110.040;2023-02-19T01:28:07;101751.25;;;11.35;96.14
64908;BME280;64365;-1.756;110.040;2023-02-19T01:30:35;101737.44;;;11.29;96.98
64908;BME280;64365;-1.756;110.040;2023-02-19T01:33:02;101742.41;;;11.31;96.59
64908;BME280;64365;-1.756;110.040;2023-02-19T01:35:30;101744.22;;;11.26;96.13
64908;BME280;64365;-1.756;110.040;2023-02-19T01:37:57;101736.22;;;11.26;96.39
64908;BME280;64365;-1.756;110.040;2023-02-19T01:40:24;101746.88;;;11.26;96.50
64908;BME280;64365;-1.756;110.040;2023-02-19T01:42:51;101745.06;;;11.31;96.69
64908;BME280;64365;-1.756;110.040;2023-02-19T01:45:22;101743.88;;;11.28;96.18
64908;BME280;64365;-1.756;110.040;2023-02-19T01:50:46;101748.34;;;11.24;96.69
64908;BME280;64365;-1.756;110.040;2023-02-19T01:53:17;101754.44;;;11.24;96.70
64908;BME280;64365;-1.756;110.040;2023-02-19T01:55:45;101753.75;;;11.27;96.92
64908;BME280;64365;-1.756;110.040;2023-02-19T01:58:13;101758.81;;;11.33;96.56
64908;BME280;64365;-1.756;110.040;2023-02-19T02:00:41;101750.03;;;11.32;96.74
64908;BME280;64365;-1.756;110.040;2023-02-19T02:03:07;101752.63;;;11.28;96.33
64908;BME280;64365;-1.756;110.040;2023-02-19T02:05:43;101751.34;;;11.22;96.21
64908;BME280;64365;-1.756;110.040;2023-02-19T02:08:11;101757.09;;;11.24;97.25
64908;BME280;64365;-1.756;110.040;2023-02-19T02:10:56;101752.19;;;11.26;96.75
64908;BME280;64365;-1.756;110.040;2023-02-19T02:13:23;101752.97;;;11.27;96.78
64908;BME280;64365;-1.756;110.040;2023-02-19T02:15:56;101758.81;;;11.33;96.78
64908;BME280;64365;-1.756;110.040;2023-02-19T02:18:35;101761.88;;;11.35;96.50
64908;BME280;64365;-1.756;110.040;2023-02-19T02:21:32;101761.13;;;11.34;96.73
64908;BME280;64365;-1.756;110.040;2023-02-19T02:24:31;101764.56;;;11.35;96.45
64908;BME280;64365;-1.756;110.040;2023-02-19T02:27:14;101758.38;;;11.31;95.76
64908;BME280;64365;-1.756;110.040;2023-02-19T02:33:02;101760.94;;;11.27;96.20
64908;BME280;64365;-1.756;110.040;2023-02-19T02:35:33;101767.47;;;11.29;95.58
64908;BME280;64365;-1.756;110.040;2023-02-19T02:38:06;101760.09;;;11.23;95.83
64908;BME280;64365;-1.756;110.040;2023-02-19T02:40:33;101768.91;;;11.27;95.77
64908;BME280;64365;-1.756;110.040;2023-02-19T02:43:00;101765.94;;;11.28;96.50
64908;BME280;64365;-1.756;110.040;2023-02-19T02:45:29;101766.34;;;11.31;95.52
64908;BME280;64365;-1.756;110.040;2023-02-19T02:48:08;101767.06;;;11.27;94.97
64908;BME280;64365;-1.756;110.040;2023-02-19T02:50:39;101768.16;;;11.26;94.83
64908;BME280;64365;-1.756;110.040;2023-02-19T02:53:11;101765.50;;;11.26;94.89
64908;BME280;64365;-1.756;110.040;2023-02-19T02:55:57;101763.53;;;11.23;94.61
64908;BME280;64365;-1.756;110.040;2023-02-19T02:58:25;101761.97;;;11.22;94.80
64908;BME280;64365;-1.756;110.040;2023-02-19T03:00:56;101771.53;;;11.23;94.58
64908;BME280;64365;-1.756;110.040;2023-02-19T03:03:44;101771.88;;;11.22;94.39
64908;BME280;64365;-1.756;110.040;2023-02-19T03:06:16;101769.47;;;11.17;95.03
64908;BME280;64365;-1.756;110.040;2023-02-19T03:08:47;101785.94;;;11.22;95.23
64908;BME280;64365;-1.756;110.040;2023-02-19T03:11:14;101786.38;;;11.24;94.77
64908;BME280;64365;-1.756;110.040;2023-02-19T03:14:03;101783.97;;;11.19;94.88
64908;BME280;64365;-1.756;110.040;2023-02-19T03:16:50;101792.28;;;11.18;94.72
64908;BME280;64365;-1.756;110.040;2023-02-19T03:19:42;101789.19;;;11.16;94.69
64908;BME280;64365;-1.756;110.040;2023-02-19T03:22:13;101787.28;;;11.16;94.68
64908;BME280;64365;-1.756;110.040;2023-02-19T03:24:45;101787.72;;;11.18;94.63
64908;BME280;64365;-1.756;110.040;2023-02-19T03:27:33;101794.59;;;11.19;94.87
64908;BME280;64365;-1.756;110.040;2023-02-19T03:30:04;101791.94;;;11.19;94.68
64908;BME280;64365;-1.756;110.040;2023-02-19T03:32:37;101793.47;;;11.20;93.94
64908;BME280;64365;-1.756;110.040;2023-02-19T03:35:10;101792.63;;;11.16;93.75
64908;BME280;64365;-1.756;110.040;2023-02-19T03:37:43;101797.28;;;11.19;94.14
64908;BME280;64365;-1.756;110.040;2023-02-19T03:40:11;101804.47;;;11.19;93.69
64908;BME280;64365;-1.756;110.040;2023-02-19T03:42:42;101793.31;;;11.13;93.63
64908;BME280;64365;-1.756;110.040;2023-02-19T03:45:25;101806.59;;;11.13;94.43
64908;BME280;64365;-1.756;110.040;2023-02-19T03:48:05;101809.72;;;11.15;94.35
64908;BME280;64365;-1.756;110.040;2023-02-19T03:50:42;101810.38;;;11.12;94.19
64908;BME280;64365;-1.756;110.040;2023-02-19T03:53:16;101816.56;;;11.16;93.96
64908;BME280;64365;-1.756;110.040;2023-02-19T03:55:53;101816.56;;;11.16;94.49
64908;BME280;64365;-1.756;110.040;2023-02-19T03:58:23;101826.34;;;11.12;94.58
64908;BME280;64365;-1.756;110.040;2023-02-19T04:00:55;101830.31;;;11.18;94.12
64908;BME280;64365;-1.756;110.040;2023-02-19T04:03:26;101841.63;;;11.15;93.54
64908;BME280;64365;-1.756;110.040;2023-02-19T04:06:00;101842.66;;;11.10;93.97
64908;BME280;64365;-1.756;110.040;2023-02-19T04:08:28;101846.75;;;11.08;94.07
64908;BME280;64365;-1.756;110.040;2023-02-19T04:10:57;101850.97;;;11.09;94.81
64908;BME280;64365;-1.756;110.040;2023-02-19T04:13:27;101845.31;;;11.10;94.96
64908;BME280;64365;-1.756;110.040;2023-02-19T04:15:59;101842.00;;;11.14;95.43
64908;BME280;64365;-1.756;110.040;2023-02-19T04:18:30;101850.72;;;11.14;95.51
64908;BME280;64365;-1.756;110.040;2023-02-19T04:20:59;101846.84;;;11.11;96.11
64908;BME280;64365;-1.756;110.040;2023-02-19T04:23:30;101853.03;;;11.16;95.67
64908;BME280;64365;-1.756;110.040;2023-02-19T04:26:00;101862.25;;;11.18;95.44
64908;BME280;64365;-1.756;110.040;2023-02-19T04:28:27;101854.59;;;11.17;96.32
64908;BME280;64365;-1.756;110.040;2023-02-19T04:30:54;101856.16;;;11.18;95.69
64908;BME280;64365;-1.756;110.040;2023-02-19T04:33:20;101868.25;;;11.15;95.28
64908;BME280;64365;-1.756;110.040;2023-02-19T04:35:47;101879.31;;;11.17;94.86
64908;BME280;64365;-1.756;110.040;2023-02-19T04:38:15;101874.69;;;11.14;95.40
64908;BME280;64365;-1.756;110.040;2023-02-19T04:40:42;101886.53;;;11.17;95.84
64908;BME280;64365;-1.756;110.040;2023-02-19T04:43:08;101890.75;;;11.18;96.15
64908;BME280;64365;-1.756;110.040;2023-02-19T04:45:36;101895.72;;;11.19;95.95
64908;BME280;64365;-1.756;110.040;2023-02-19T04:48:03;101888.84;;;11.18;95.67
64908;BME280;64365;-1.756;110.040;2023-02-19T04:50:29;101896.59;;;11.23;95.18
64908;BME280;64365;-1.756;110.040;2023-02-19T04:52:56;101914.75;;;11.21;94.92
64908;BME280;64365;-1.756;110.040;2023-02-19T04:55:24;101913.13;;;11.17;94.03
64908;BME280;64365;-1.756;110.040;2023-02-19T04:57:50;101908.56;;;11.17;94.58
64908;BME280;64365;-1.756;110.040;2023-02-19T05:00:17;101908.16;;;11.15;95.08
64908;BME280;64365;-1.756;110.040;2023-02-19T05:02:43;101920.44;;;11.20;95.29
64908;BME280;64365;-1.756;110.040;2023-02-19T05:05:10;101917.88;;;11.23;94.38
64908;BME280;64365;-1.756;110.040;2023-02-19T05:07:36;101921.19;;;11.20;94.48
64908;BME280;64365;-1.756;110.040;2023-02-19T05:10:04;101926.09;;;11.18;93.84
64908;BME280;64365;-1.756;110.040;2023-02-19T05:12:32;101925.47;;;11.09;94.42
64908;BME280;64365;-1.756;110.040;2023-02-19T05:14:58;101939.78;;;11.04;94.70
64908;BME280;64365;-1.756;110.040;2023-02-19T05:17:25;101930.25;;;11.03;95.42
64908;BME280;64365;-1.756;110.040;2023-02-19T05:19:51;101939.78;;;11.04;95.33
64908;BME280;64365;-1.756;110.040;2023-02-19T05:22:18;101942.69;;;10.99;94.97
64908;BME280;64365;-1.756;110.040;2023-02-19T05:24:44;101949.09;;;10.98;95.05
64908;BME280;64365;-1.756;110.040;2023-02-19T05:27:11;101935.16;;;10.89;95.28
64908;BME280;64365;-1.756;110.040;2023-02-19T05:29:39;101943.69;;;10.94;94.88
64908;BME280;64365;-1.756;110.040;2023-02-19T05:32:05;101944.81;;;10.93;95.00
64908;BME280;64365;-1.756;110.040;2023-02-19T05:34:32;101936.28;;;10.88;94.31
64908;BME280;64365;-1.756;110.040;2023-02-19T05:36:58;101946.34;;;10.94;94.65
64908;BME280;64365;-1.756;110.040;2023-02-19T05:39:25;101947.81;;;10.92;94.81
64908;BME280;64365;-1.756;110.040;2023-02-19T05:41:51;101945.91;;;10.92;94.71
64908;BME280;64365;-1.756;110.040;2023-02-19T05:44:18;101950.38;;;10.88;93.86
64908;BME280;64365;-1.756;110.040;2023-02-19T05:46:46;101948.81;;;10.87;94.12
64908;BME280;64365;-1.756;110.040;2023-02-19T05:49:12;101951.34;;;10.84;93.98
64908;BME280;64365;-1.756;110.040;2023-02-19T05:51:39;101948.28;;;10.82;94.72
64908;BME280;64365;-1.756;110.040;2023-02-19T05:54:06;101956.78;;;10.87;95.55
64908;BME280;64365;-1.756;110.040;2023-02-19T05:56:34;101957.66;;;10.91;94.71
64908;BME280;64365;-1.756;110.040;2023-02-19T05:59:03;101961.88;;;10.92;94.12
64908;BME280;64365;-1.756;110.040;2023-02-19T06:01:31;101963.84;;;10.95;94.09
64908;BME280;64365;-1.756;110.040;2023-02-19T06:03:59;101971.84;;;10.95;93.84
64908;BME280;64365;-1.756;110.040;2023-02-19T06:06:26;101963.84;;;10.95;93.75
64908;BME280;64365;-1.756;110.040;2023-02-19T06:08:53;101978.25;;;10.94;94.47
64908;BME280;64365;-1.756;110.040;2023-02-19T06:11:20;101980.16;;;10.94;95.00
64908;BME280;64365;-1.756;110.040;2023-02-19T06:13:46;101984.78;;;10.97;95.73
64908;BME280;64365;-1.756;110.040;2023-02-19T06:16:14;101986.00;;;11.00;94.93
64908;BME280;64365;-1.756;110.040;2023-02-19T06:18:42;101996.66;;;11.00;95.16
64908;BME280;64365;-1.756;110.040;2023-02-19T06:21:10;101993.22;;;10.99;94.69
64908;BME280;64365;-1.756;110.040;2023-02-19T06:23:38;102000.75;;;10.97;94.65
64908;BME280;64365;-1.756;110.040;2023-02-19T06:26:07;102005.72;;;10.99;94.36
64908;BME280;64365;-1.756;110.040;2023-02-19T06:28:34;102004.53;;;10.96;94.50
64908;BME280;64365;-1.756;110.040;2023-02-19T06:31:01;102013.72;;;10.99;94.16
64908;BME280;64365;-1.756;110.040;2023-02-19T06:33:28;102011.06;;;10.99;93.97
64908;BME280;64365;-1.756;110.040;2023-02-19T06:35:57;102009.06;;;10.95;93.72
64908;BME280;64365;-1.756;110.040;2023-02-19T06:38:25;102009.88;;;10.96;93.93
64908;BME280;64365;-1.756;110.040;2023-02-19T06:40:52;102009.06;;;10.95;94.11
64908;BME280;64365;-1.756;110.040;2023-02-19T06:43:19;102027.69;;;10.95;94.64
64908;BME280;64365;-1.756;110.040;2023-02-19T06:45:45;102018.16;;;10.94;94.46
64908;BME280;64365;-1.756;110.040;2023-02-19T06:48:12;102009.97;;;10.87;93.71
64908;BME280;64365;-1.756;110.040;2023-02-19T06:50:38;102031.03;;;10.92;94.25
64908;BME280;64365;-1.756;110.040;2023-02-19T06:53:05;102036.78;;;10.94;94.91
64908;BME280;64365;-1.756;110.040;2023-02-19T06:55:34;102037.13;;;10.93;94.33
64908;BME280;64365;-1.756;110.040;2023-02-19T06:58:01;102044.00;;;10.94;94.13
64908;BME280;64365;-1.756;110.040;2023-02-19T07:00:27;102050.06;;;10.94;93.95
64908;BME280;64365;-1.756;110.040;2023-02-19T07:02:54;102050.06;;;10.94;93.78
64908;BME280;64365;-1.756;110.040;2023-02-19T07:05:22;102053.19;;;10.97;93.92
64908;BME280;64365;-1.756;110.040;2023-02-19T07:07:48;102050.00;;;10.91;94.09
64908;BME280;64365;-1.756;110.040;2023-02-19T07:10:15;102066.59;;;11.00;94.16
64908;BME280;64365;-1.756;110.040;2023-02-19T07:12:43;102053.88;;;10.93;93.35
64908;BME280;64365;-1.756;110.040;2023-02-19T07:15:10;102072.25;;;10.99;93.51
64908;BME280;64365;-1.756;110.040;2023-02-19T07:17:36;102076.44;;;11.00;93.66
64908;BME280;64365;-1.756;110.040;2023-02-19T07:20:03;102087.53;;;11.02;94.29
64908;BME280;64365;-1.756;110.040;2023-02-19T07:22:30;102089.19;;;11.06;93.81
64908;BME280;64365;-1.756;110.040;2023-02-19T07:24:56;102083.78;;;11.03;93.59
64908;BME280;64365;-1.756;110.040;2023-02-19T07:27:23;102093.06;;;11.09;93.66
64908;BME280;64365;-1.756;110.040;2023-02-19T07:29:51;102089.50;;;11.17;93.12
64908;BME280;64365;-1.756;110.040;2023-02-19T07:32:17;102096.94;;;11.24;92.92
64908;BME280;64365;-1.756;110.040;2023-02-19T07:34:44;102099.38;;;11.29;92.76
64908;BME280;64365;-1.756;110.040;2023-02-19T07:37:11;102109.78;;;11.34;91.89
64908;BME280;64365;-1.756;110.040;2023-02-19T07:39:37;102101.47;;;11.36;91.80
64908;BME280;64365;-1.756;110.040;2023-02-19T07:42:04;102112.88;;;11.36;90.77
64908;BME280;64365;-1.756;110.040;2023-02-19T07:44:31;102108.69;;;11.35;91.49
64908;BME280;64365;-1.756;110.040;2023-02-19T07:46:59;102113.22;;;11.35;91.56
64908;BME280;64365;-1.756;110.040;2023-02-19T07:49:25;102117.63;;;11.43;92.16
64908;BME280;64365;-1.756;110.040;2023-02-19T07:51:53;102120.81;;;11.49;91.61
64908;BME280;64365;-1.756;110.040;2023-02-19T07:54:19;102126.59;;;11.51;91.81
64908;BME280;64365;-1.756;110.040;2023-02-19T07:56:46;102121.81;;;11.56;91.35
64908;BME280;64365;-1.756;110.040;2023-02-19T07:59:12;102128.81;;;11.61;90.82
64908;BME280;64365;-1.756;110.040;2023-02-19T08:01:40;102132.66;;;11.63;91.09
64908;BME280;64365;-1.756;110.040;2023-02-19T08:04:25;102136.13;;;11.64;90.85
64908;BME280;64365;-1.756;110.040;2023-02-19T08:06:52;102138.66;;;11.60;91.26
64908;BME280;64365;-1.756;110.040;2023-02-19T08:09:18;102135.81;;;11.53;91.51
64908;BME280;64365;-1.756;110.040;2023-02-19T08:11:45;102150.09;;;11.61;90.89
64908;BME280;64365;-1.756;110.040;2023-02-19T08:14:29;102143.69;;;11.50;91.42
64908;BME280;64365;-1.756;110.040;2023-02-19T08:16:55;102153.00;;;11.56;90.68
64908;BME280;64365;-1.756;110.040;2023-02-19T08:19:22;102160.44;;;11.50;90.92
64908;BME280;64365;-1.756;110.040;2023-02-19T08:21:50;102163.19;;;11.54;91.44
64908;BME280;64365;-1.756;110.040;2023-02-19T08:24:17;102166.41;;;11.59;91.33
64908;BME280;64365;-1.756;110.040;2023-02-19T08:26:44;102179.72;;;11.59;91.35
64908;BME280;64365;-1.756;110.040;2023-02-19T08:29:11;102172.50;;;11.60;91.06
64908;BME280;64365;-1.756;110.040;2023-02-19T08:31:37;102182.06;;;11.61;90.88
64908;BME280;64365;-1.756;110.040;2023-02-19T08:34:04;102184.38;;;11.62;90.87
64908;BME280;64365;-1.756;110.040;2023-02-19T08:36:30;102198.13;;;11.65;91.15
64908;BME280;64365;-1.756;110.040;2023-02-19T08:38:58;102199.69;;;11.66;91.01
64908;BME280;64365;-1.756;110.040;2023-02-19T08:41:25;102199.56;;;11.62;90.17
64908;BME280;64365;-1.756;110.040;2023-02-19T08:43:52;102196.91;;;11.62;89.86
64908;BME280;64365;-1.756;110.040;2023-02-19T08:46:19;102199.03;;;11.56;89.93
64908;BME280;64365;-1.756;110.040;2023-02-19T08:48:46;102196.16;;;11.49;90.72
64908;BME280;64365;-1.756;110.040;2023-02-19T08:51:14;102182.84;;;11.49;90.97
64908;BME280;64365;-1.756;110.040;2023-02-19T08:53:41;102185.28;;;11.54;91.41
64908;BME280;64365;-1.756;110.040;2023-02-19T08:56:11;102187.06;;;11.50;91.68
64908;BME280;64365;-1.756;110.040;2023-02-19T08:58:39;102200.25;;;11.59;91.03
64908;BME280;64365;-1.756;110.040;2023-02-19T09:01:08;102210.13;;;11.58;92.33
64908;BME280;64365;-1.756;110.040;2023-02-19T09:03:35;102192.03;;;11.64;91.88
64908;BME280;64365;-1.756;110.040;2023-02-19T09:06:02;102192.03;;;11.64;91.59
64908;BME280;64365;-1.756;110.040;2023-02-19T09:08:29;102200.03;;;11.64;91.23
64908;BME280;64365;-1.756;110.040;2023-02-19T09:10:59;102205.69;;;11.62;90.93
64908;BME280;64365;-1.756;110.040;2023-02-19T09:13:27;102206.22;;;11.68;91.12
64908;BME280;64365;-1.756;110.040;2023-02-19T09:15:53;102214.34;;;11.72;90.28
64908;BME280;64365;-1.756;110.040;2023-02-19T09:18:21;102208.22;;;11.71;90.08
64908;BME280;64365;-1.756;110.040;2023-02-19T09:20:48;102215.44;;;11.71;90.37
64908;BME280;64365;-1.756;110.040;2023-02-19T09:23:14;102217.31;;;11.70;90.34
64908;BME280;64365;-1.756;110.040;2023-02-19T09:25:41;102222.53;;;11.67;90.07
64908;BME280;64365;-1.756;110.040;2023-02-19T09:28:07;102248.63;;;11.73;90.17
64908;BME280;64365;-1.756;110.040;2023-02-19T09:30:35;102255.38;;;11.71;89.65
64908;BME280;64365;-1.756;110.040;2023-02-19T09:33:03;102264.69;;;11.65;90.10
64908;BME280;64365;-1.756;110.040;2023-02-19T09:35:30;102272.69;;;11.65;90.21
64908;BME280;64365;-1.756;110.040;2023-02-19T09:37:58;102262.03;;;11.65;90.98
64908;BME280;64365;-1.756;110.040;2023-02-19T09:40:24;102282.91;;;11.75;90.14
64908;BME280;64365;-1.756;110.040;2023-02-19T09:42:51;102296.97;;;11.75;89.69
64908;BME280;64365;-1.756;110.040;2023-02-19T09:45:22;102289.66;;;11.72;89.05
64908;BME280;64365;-1.756;110.040;2023-02-19T09:47:52;102297.44;;;11.65;88.56
64908;BME280;64365;-1.756;110.040;2023-02-19T09:50:23;102313.63;;;11.60;87.68
64908;BME280;64365;-1.756;110.040;2023-02-19T09:52:53;102310.97;;;11.48;87.69
64908;BME280;64365;-1.756;110.040;2023-02-19T09:55:27;102308.31;;;11.35;87.70
64908;BME280;64365;-1.756;110.040;2023-02-19T09:57:54;102312.38;;;11.20;88.45
64908;BME280;64365;-1.756;110.040;2023-02-19T10:00:24;102324.38;;;11.26;88.29
64908;BME280;64365;-1.756;110.040;2023-02-19T10:02:54;102330.34;;;11.23;87.32
64908;BME280;64365;-1.756;110.040;2023-02-19T10:05:26;102348.19;;;11.23;87.78
64908;BME280;64365;-1.756;110.040;2023-02-19T10:07:54;102338.34;;;11.23;88.93
64908;BME280;64365;-1.756;110.040;2023-02-19T10:10:26;102346.41;;;11.27;88.75
64908;BME280;64365;-1.756;110.040;2023-02-19T10:12:58;102349.34;;;11.34;89.76
64908;BME280;64365;-1.756;110.040;2023-02-19T10:15:29;102358.97;;;11.39;90.45
64908;BME280;64365;-1.756;110.040;2023-02-19T10:17:58;102363.63;;;11.42;88.59
64908;BME280;64365;-1.756;110.040;2023-02-19T10:20:25;102370.72;;;11.38;88.64
64908;BME280;64365;-1.756;110.040;2023-02-19T10:22:58;102358.28;;;11.29;86.78
64908;BME280;64365;-1.756;110.040;2023-02-19T10:25:26;102385.72;;;11.30;87.10
64908;BME280;64365;-1.756;110.040;2023-02-19T10:27:52;102385.56;;;11.26;87.68
64908;BME280;64365;-1.756;110.040;2023-02-19T10:30:21;102383.78;;;11.18;87.89
64908;BME280;64365;-1.756;110.040;2023-02-19T10:33:00;102404.16;;;11.14;86.51
64908;BME280;64365;-1.756;110.040;2023-02-19T10:35:27;102391.97;;;11.13;86.34
64908;BME280;64365;-1.756;110.040;2023-02-19T10:37:54;102398.16;;;11.05;86.72
64908;BME280;64365;-1.756;110.040;2023-02-19T10:40:24;102408.03;;;11.04;87.79
64908;BME280;64365;-1.756;110.040;2023-02-19T10:42:53;102409.88;;;11.04;88.22
64908;BME280;64365;-1.756;110.040;2023-02-19T10:45:23;102406.00;;;11.01;89.34
64908;BME280;64365;-1.756;110.040;2023-02-19T10:47:51;102401.13;;;11.03;88.25
64908;BME280;64365;-1.756;110.040;2023-02-19T10:50:25;102402.09;;;10.99;87.75
64908;BME280;64365;-1.756;110.040;2023-02-19T10:52:55;102401.78;;;11.00;86.81
64908;BME280;64365;-1.756;110.040;2023-02-19T10:55:26;102386.13;;;10.99;86.80
64908;BME280;64365;-1.756;110.040;2023-02-19T10:57:53;102377.72;;;10.97;87.79
64908;BME280;64365;-1.756;110.040;2023-02-19T11:00:22;102383.47;;;10.99;87.15
64908;BME280;64365;-1.756;110.040;2023-02-19T11:03:12;102389.03;;;10.93;86.60
64908;BME280;64365;-1.756;110.040;2023-02-19T11:05:49;102394.34;;;10.93;86.22
64908;BME280;64365;-1.756;110.040;2023-02-19T11:08:20;102396.41;;;10.88;87.51
64908;BME280;64365;-1.756;110.040;2023-02-19T11:10:48;102407.03;;;10.88;88.37
64908;BME280;64365;-1.756;110.040;2023-02-19T11:13:25;102411.84;;;10.94;88.73
64908;BME280;64365;-1.756;110.040;2023-02-19T11:15:54;102411.84;;;10.94;88.16
64908;BME280;64365;-1.756;110.040;2023-02-19T11:18:23;102414.31;;;11.00;88.90
64908;BME280;64365;-1.756;110.040;2023-02-19T11:20:54;102417.66;;;11.09;87.75
64908;BME280;64365;-1.756;110.040;2023-02-19T11:23:24;102422.09;;;11.05;86.28
64908;BME280;64365;-1.756;110.040;2023-02-19T11:25:53;102424.19;;;10.99;86.29
64908;BME280;64365;-1.756;110.040;2023-02-19T11:28:29;102420.03;;;10.89;85.64
64908;BME280;64365;-1.756;110.040;2023-02-19T11:31:13;102418.22;;;10.81;85.75
64908;BME280;64365;-1.756;110.040;2023-02-19T11:33:45;102436.75;;;10.69;85.87
64908;BME280;64365;-1.756;110.040;2023-02-19T11:36:25;102440.56;;;10.59;86.31
64908;BME280;64365;-1.756;110.040;2023-02-19T11:38:53;102442.31;;;10.55;86.63
64908;BME280;64365;-1.756;110.040;2023-02-19T11:41:27;102439.50;;;10.51;87.08
64908;BME280;64365;-1.756;110.040;2023-02-19T11:44:09;102441.25;;;10.47;88.55
64908;BME280;64365;-1.756;110.040;2023-02-19T11:46:47;102432.66;;;10.50;87.62
64908;BME280;64365;-1.756;110.040;2023-02-19T11:49:27;102425.13;;;10.52;88.40
64908;BME280;64365;-1.756;110.040;2023-02-19T11:52:10;102424.28;;;10.60;87.79
64908;BME280;64365;-1.756;110.040;2023-02-19T11:54:50;102414.66;;;10.56;87.99
64908;BME280;64365;-1.756;110.040;2023-02-19T11:57:33;102415.41;;;10.56;88.81
64908;BME280;64365;-1.756;110.040;2023-02-19T12:00:22;102420.50;;;10.70;87.15
64908;BME280;64365;-1.756;110.040;2023-02-19T12:03:18;102434.69;;;10.74;85.61
64908;BME280;64365;-1.756;110.040;2023-02-19T12:06:12;102433.13;;;10.73;88.34
64908;BME280;64365;-1.756;110.040;2023-02-19T12:09:12;102427.81;;;10.73;90.06
64908;BME280;64365;-1.756;110.040;2023-02-19T12:12:06;102432.88;;;10.87;87.07
64908;BME280;64365;-1.756;110.040;2023-02-19T12:17:41;102449.03;;;10.82;86.65
64908;BME280;64365;-1.756;110.040;2023-02-19T12:20:17;102451.25;;;10.80;86.38
64908;BME280;64365;-1.756;110.040;2023-02-19T12:23:06;102443.59;;;10.78;85.41
64908;BME280;64365;-1.756;110.040;2023-02-19T12:25:53;102447.38;;;10.69;84.57
64908;BME280;64365;-1.756;110.040;2023-02-19T12:28:35;102442.53;;;10.71;86.17
64908;BME280;64365;-1.756;110.040;2023-02-19T12:31:20;102439.09;;;10.70;86.99
64908;BME280;64365;-1.756;110.040;2023-02-19T12:34:16;102446.75;;;10.72;84.58
64908;BME280;64365;-1.756;110.040;2023-02-19T12:36:56;102458.16;;;10.72;84.14
64908;BME280;64365;-1.756;110.040;2023-02-19T12:39:34;102446.75;;;10.72;83.16
64908;BME280;64365;-1.756;110.040;2023-02-19T12:42:10;102453.22;;;10.62;85.20
64908;BME280;64365;-1.756;110.040;2023-02-19T12:44:42;102454.44;;;10.65;85.31
64908;BME280;64365;-1.756;110.040;2023-02-19T12:47:15;102461.81;;;10.68;86.29
64908;BME280;64365;-1.756;110.040;2023-02-19T12:49:48;102475.53;;;10.70;84.87
64908;BME280;64365;-1.756;110.040;2023-02-19T12:52:19;102475.88;;;10.68;83.61
64908;BME280;64365;-1.756;110.040;2023-02-19T12:54:51;102469.97;;;10.63;85.92
64908;BME280;64365;-1.756;110.040;2023-02-19T12:57:22;102484.31;;;10.70;83.61